createdAt,value
2018-08-18T00:00:19.083Z,2.50
2018-08-18T00:02:48.004Z,2.10
2018-08-18T00:05:17.520Z,2.23
2018-08-18T00:07:46.753Z,2.50
2018-08-18T00:10:21.256Z,2.40
2018-08-18T00:12:50.145Z,2.60
2018-08-18T00:15:19.527Z,2.60
2018-08-18T00:17:50.307Z,2.17
2018-08-18T00:20:23.530Z,1.87
2018-08-18T00:22:52.428Z,2.23
2018-08-18T00:25:21.231Z,2.20
2018-08-18T00:27:50.587Z,2.23
2018-08-18T00:30:24.665Z,2.10
2018-08-18T00:32:55.477Z,2.60
2018-08-18T00:35:24.511Z,2.50
2018-08-18T00:37:53.964Z,2.40
2018-08-18T00:40:22.827Z,2.17
2018-08-18T00:42:51.656Z,2.07
2018-08-18T00:45:20.473Z,2.10
2018-08-18T00:47:49.498Z,2.30
2018-08-18T00:50:44.094Z,1.85
2018-08-18T00:53:15.110Z,2.17
2018-08-18T00:55:43.974Z,2.30
2018-08-18T00:58:21.796Z,2.17
2018-08-18T01:00:56.098Z,1.90
2018-08-18T01:03:24.931Z,1.97
2018-08-18T01:05:53.926Z,2.03
2018-08-18T01:08:22.766Z,2.47
2018-08-18T01:10:51.691Z,2.63
2018-08-18T01:13:20.539Z,2.47
2018-08-18T01:15:49.306Z,2.08
2018-08-18T01:18:18.210Z,2.60
2018-08-18T01:20:47.022Z,2.40
2018-08-18T01:23:15.831Z,2.43
2018-08-18T01:25:44.659Z,2.37
2018-08-18T01:28:13.846Z,2.77
2018-08-18T01:30:42.657Z,2.10
2018-08-18T01:33:11.479Z,2.20
2018-08-18T01:35:40.274Z,2.33
2018-08-18T01:38:09.094Z,2.70
2018-08-18T01:40:38.079Z,2.87
2018-08-18T01:43:07.742Z,2.70
2018-08-18T01:45:36.552Z,2.50
2018-08-18T01:48:05.606Z,2.47
2018-08-18T01:50:34.418Z,2.53
2018-08-18T01:53:03.222Z,2.47
2018-08-18T01:55:32.058Z,2.53
2018-08-18T01:58:00.860Z,2.77
2018-08-18T02:00:29.679Z,2.57
2018-08-18T02:02:58.664Z,2.80
2018-08-18T02:05:27.477Z,2.80
2018-08-18T02:07:56.285Z,2.27
2018-08-18T02:10:25.090Z,2.67
2018-08-18T02:13:04.109Z,2.67
2018-08-18T02:15:32.997Z,2.87
2018-08-18T02:18:01.814Z,2.37
2018-08-18T02:20:30.650Z,3.03
2018-08-18T02:22:59.677Z,3.03
2018-08-18T02:25:28.481Z,2.93
2018-08-18T02:27:57.298Z,2.33
2018-08-18T02:30:26.777Z,2.47
2018-08-18T02:32:55.607Z,2.47
2018-08-18T02:35:24.491Z,2.55
2018-08-18T02:37:53.391Z,3.03
2018-08-18T02:40:22.223Z,2.33
2018-08-18T02:42:51.276Z,2.70
2018-08-18T02:45:20.306Z,2.90
2018-08-18T02:48:00.669Z,2.60
2018-08-18T02:50:29.534Z,3.23
2018-08-18T02:52:58.324Z,3.00
2018-08-18T02:55:27.121Z,2.73
2018-08-18T02:57:55.949Z,2.63
2018-08-18T03:00:30.343Z,2.90
2018-08-18T03:02:59.455Z,3.17
2018-08-18T03:05:28.307Z,2.70
2018-08-18T03:07:57.265Z,3.03
2018-08-18T03:10:26.934Z,3.30
2018-08-18T03:12:59.584Z,2.90
2018-08-18T03:16:09.872Z,3.30
2018-08-18T03:18:43.810Z,3.27
2018-08-18T03:21:12.977Z,2.83
2018-08-18T03:23:59.517Z,3.30
2018-08-18T03:26:33.677Z,3.87
2018-08-18T03:29:03.024Z,2.97
2018-08-18T03:31:32.098Z,3.53
2018-08-18T03:34:00.890Z,3.47
2018-08-18T03:36:32.616Z,3.60
2018-08-18T03:39:01.413Z,3.53
2018-08-18T03:41:30.734Z,4.10
2018-08-18T03:43:59.636Z,4.20
2018-08-18T03:46:28.466Z,4.20
2018-08-18T03:48:57.310Z,3.77
2018-08-18T03:51:31.529Z,4.13
2018-08-18T03:54:01.230Z,3.83
2018-08-18T03:56:30.592Z,4.50
2018-08-18T03:58:59.810Z,4.90
2018-08-18T04:01:48.371Z,4.50
2018-08-18T04:04:18.798Z,4.93
2018-08-18T04:06:49.082Z,5.87
2018-08-18T04:09:22.290Z,5.93
2018-08-18T04:11:51.516Z,4.60
2018-08-18T04:14:27.754Z,4.37
2018-08-18T04:16:57.146Z,4.10
2018-08-18T04:19:26.243Z,3.93
2018-08-18T04:21:55.906Z,3.53
2018-08-18T04:24:32.311Z,3.07
2018-08-18T04:27:02.112Z,3.17
2018-08-18T04:29:30.939Z,3.23
2018-08-18T04:32:01.070Z,3.17
2018-08-18T04:34:29.924Z,3.50
2018-08-18T04:37:00.004Z,3.40
2018-08-18T04:39:28.840Z,3.57
2018-08-18T04:41:57.842Z,4.17
2018-08-18T04:44:27.709Z,3.57
2018-08-18T04:46:56.513Z,3.30
2018-08-18T04:49:25.332Z,3.57
2018-08-18T04:51:54.148Z,3.20
2018-08-18T04:54:22.945Z,3.27
2018-08-18T04:56:51.848Z,3.17
2018-08-18T04:59:22.823Z,4.43
2018-08-18T05:01:51.626Z,4.00
2018-08-18T05:04:20.637Z,4.10
2018-08-18T05:06:49.550Z,4.70
2018-08-18T05:09:18.399Z,3.53
2018-08-18T05:11:47.329Z,3.23
2018-08-18T05:14:16.108Z,4.90
2018-08-18T05:16:44.925Z,4.13
2018-08-18T05:19:13.778Z,4.13
2018-08-18T05:21:42.565Z,3.33
2018-08-18T05:24:25.207Z,3.23
2018-08-18T05:26:55.179Z,3.87
2018-08-18T05:29:24.000Z,4.10
2018-08-18T05:31:52.820Z,3.43
2018-08-18T05:34:22.147Z,3.63
2018-08-18T05:36:50.943Z,3.23
2018-08-18T05:39:19.742Z,3.77
2018-08-18T05:41:49.002Z,3.43
2018-08-18T05:44:17.789Z,3.70
2018-08-18T05:46:47.607Z,4.33
2018-08-18T05:49:17.050Z,4.67
2018-08-18T05:51:48.671Z,3.57
2018-08-18T05:54:24.679Z,4.13
2018-08-18T05:56:53.503Z,2.83
2018-08-18T05:59:22.366Z,3.43
2018-08-18T06:01:51.270Z,3.97
2018-08-18T06:04:21.350Z,3.03
2018-08-18T06:06:51.002Z,3.93
2018-08-18T06:09:21.134Z,3.27
2018-08-18T06:11:49.997Z,3.37
2018-08-18T06:14:19.285Z,3.10
2018-08-18T06:16:48.154Z,3.07
2018-08-18T06:19:24.240Z,3.27
2018-08-18T06:21:53.784Z,3.40
2018-08-18T06:24:22.579Z,2.43
2018-08-18T06:26:51.407Z,2.63
2018-08-18T06:29:20.250Z,3.23
2018-08-18T06:32:02.252Z,3.10
2018-08-18T06:34:33.299Z,2.70
2018-08-18T06:37:02.232Z,3.40
2018-08-18T06:39:51.016Z,2.87
2018-08-18T06:42:45.792Z,2.73
2018-08-18T06:45:18.655Z,2.30
2018-08-18T06:47:47.493Z,2.80
2018-08-18T06:50:17.395Z,2.80
2018-08-18T06:52:46.807Z,2.83
2018-08-18T06:55:17.060Z,2.50
2018-08-18T06:57:49.711Z,2.53
2018-08-18T07:00:20.680Z,3.12
2018-08-18T07:02:49.539Z,2.40
2018-08-18T07:05:19.709Z,2.53
2018-08-18T07:07:49.345Z,2.53
2018-08-18T07:10:32.905Z,3.20
2018-08-18T07:13:04.051Z,2.23
2018-08-18T07:15:35.695Z,2.50
2018-08-18T07:18:06.578Z,2.17
2018-08-18T07:20:35.664Z,2.33
2018-08-18T07:23:04.588Z,2.43
2018-08-18T07:25:33.412Z,2.70
2018-08-18T07:28:07.573Z,2.50
2018-08-18T07:30:36.683Z,2.60
2018-08-18T07:33:05.622Z,2.17
2018-08-18T07:35:35.946Z,2.10
2018-08-18T07:38:04.883Z,2.40
2018-08-18T07:40:46.100Z,2.10
2018-08-18T07:43:19.976Z,2.43
2018-08-18T07:45:49.522Z,2.03
2018-08-18T07:48:18.330Z,2.10
2018-08-18T07:50:47.154Z,1.90
2018-08-18T07:53:16.201Z,2.17
2018-08-18T07:55:44.889Z,2.00
2018-08-18T07:58:16.033Z,2.13
2018-08-18T08:00:44.942Z,1.57
2018-08-18T08:03:14.941Z,2.10
2018-08-18T08:05:43.982Z,1.93
2018-08-18T08:08:13.234Z,1.97
2018-08-18T08:10:42.205Z,2.30
2018-08-18T08:13:11.810Z,2.27
2018-08-18T08:15:41.297Z,2.30
2018-08-18T08:18:12.693Z,1.93
2018-08-18T08:20:42.206Z,1.80
2018-08-18T08:23:11.309Z,1.80
2018-08-18T08:25:40.145Z,2.00
2018-08-18T08:28:08.992Z,1.50
2018-08-18T08:30:37.824Z,1.70
2018-08-18T08:33:06.624Z,1.70
2018-08-18T08:35:38.171Z,1.50
2018-08-18T08:38:07.009Z,1.83
2018-08-18T08:40:35.879Z,1.63
2018-08-18T08:43:04.709Z,1.60
2018-08-18T08:45:33.589Z,2.03
2018-08-18T08:48:02.455Z,1.87
2018-08-18T08:50:31.284Z,2.03
2018-08-18T08:53:00.111Z,1.90
2018-08-18T08:55:29.550Z,1.80
2018-08-18T08:57:58.470Z,1.73
2018-08-18T09:00:27.275Z,1.63
2018-08-18T09:02:56.065Z,1.83
2018-08-18T09:05:25.159Z,1.80
2018-08-18T09:07:53.969Z,1.57
2018-08-18T09:10:22.813Z,1.73
2018-08-18T09:12:51.604Z,2.50
2018-08-18T09:15:20.429Z,1.57
2018-08-18T09:17:49.332Z,1.73
2018-08-18T09:20:19.888Z,1.83
2018-08-18T09:22:56.778Z,2.10
2018-08-18T09:25:27.731Z,1.50
2018-08-18T09:28:00.888Z,1.97
2018-08-18T09:30:30.908Z,1.43
2018-08-18T09:33:03.472Z,1.73
2018-08-18T09:35:53.669Z,2.33
2018-08-18T09:38:22.694Z,1.73
2018-08-18T09:40:52.398Z,1.80
2018-08-18T09:43:23.859Z,1.30
2018-08-18T09:45:54.408Z,1.80
2018-08-18T09:48:24.317Z,1.57
2018-08-18T09:50:53.758Z,2.23
2018-08-18T09:53:23.512Z,2.03
2018-08-18T09:55:52.780Z,2.00
2018-08-18T09:58:21.643Z,1.60
2018-08-18T10:00:50.465Z,2.10
2018-08-18T10:03:19.307Z,1.90
2018-08-18T10:05:48.126Z,2.00
2018-08-18T10:08:16.927Z,1.80
2018-08-18T10:10:45.749Z,2.45
2018-08-18T10:13:14.827Z,2.10
2018-08-18T10:15:43.687Z,2.20
2018-08-18T10:18:13.627Z,3.55
2018-08-18T10:20:50.816Z,3.17
2018-08-18T10:23:20.150Z,2.67
2018-08-18T10:25:49.038Z,2.50
2018-08-18T10:28:19.353Z,2.92
2018-08-18T10:30:48.192Z,2.27
2018-08-18T10:33:16.991Z,2.10
2018-08-18T10:35:46.727Z,2.25
2018-08-18T10:38:15.698Z,1.60
2018-08-18T10:40:44.589Z,1.90
2018-08-18T10:43:13.395Z,2.20
2018-08-18T10:45:44.162Z,2.42
2018-08-18T10:48:14.445Z,1.90
2018-08-18T10:51:59.246Z,2.42
2018-08-18T10:54:28.073Z,2.12
2018-08-18T10:56:56.883Z,1.92
2018-08-18T10:59:43.287Z,2.47
2018-08-18T11:02:12.146Z,2.58
2018-08-18T11:04:40.976Z,2.08
2018-08-18T11:07:09.822Z,2.72
2018-08-18T11:09:38.633Z,2.55
2018-08-18T11:12:07.435Z,2.98
2018-08-18T11:14:36.275Z,6.20
2018-08-18T11:17:05.081Z,3.58
2018-08-18T11:19:33.888Z,3.20
2018-08-18T11:22:24.996Z,2.90
2018-08-18T11:24:54.269Z,3.05
2018-08-18T11:27:23.071Z,2.80
2018-08-18T11:29:52.486Z,2.90
2018-08-18T11:32:21.303Z,2.87
2018-08-18T11:34:50.671Z,2.62
2018-08-18T11:37:19.906Z,2.47
2018-08-18T11:39:53.855Z,3.83
2018-08-18T11:42:23.016Z,2.87
2018-08-18T11:44:52.603Z,3.35
2018-08-18T11:47:21.417Z,3.90
2018-08-18T11:49:56.915Z,5.90
2018-08-18T11:52:25.746Z,4.28
2018-08-18T11:54:54.606Z,3.52
2018-08-18T11:57:23.463Z,3.27
2018-08-18T11:59:52.890Z,2.75
2018-08-18T12:02:22.069Z,3.22
2018-08-18T12:04:51.232Z,3.12
2018-08-18T12:07:20.060Z,2.95
2018-08-18T12:09:52.802Z,2.75
2018-08-18T12:12:22.505Z,3.50
2018-08-18T12:14:51.341Z,3.05
2018-08-18T12:17:20.174Z,2.85
2018-08-18T12:19:50.870Z,3.72
2018-08-18T12:22:19.708Z,3.00
2018-08-18T12:24:53.924Z,2.92
2018-08-18T12:27:22.753Z,3.10
2018-08-18T12:29:51.734Z,3.55
2018-08-18T12:32:25.892Z,2.77
2018-08-18T12:34:56.455Z,3.22
2018-08-18T12:37:27.420Z,2.95
2018-08-18T12:39:57.988Z,4.20
2018-08-18T12:42:27.747Z,3.92
2018-08-18T12:44:57.536Z,3.87
2018-08-18T12:47:26.336Z,2.95
2018-08-18T12:49:55.204Z,3.98
2018-08-18T12:52:23.967Z,3.47
2018-08-18T12:54:52.771Z,3.72
2018-08-18T12:57:38.805Z,3.50
2018-08-18T13:00:08.534Z,3.44
2018-08-18T13:02:46.535Z,3.65
2018-08-18T13:05:15.593Z,3.17
2018-08-18T13:07:45.243Z,3.08
2018-08-18T13:10:23.517Z,3.13
2018-08-18T13:12:53.220Z,3.55
2018-08-18T13:15:22.151Z,2.90
2018-08-18T13:17:51.260Z,3.22
2018-08-18T13:20:23.234Z,3.20
2018-08-18T13:22:52.056Z,3.65
2018-08-18T13:25:20.941Z,4.00
2018-08-18T13:27:53.862Z,3.40
2018-08-18T13:30:23.442Z,3.40
2018-08-18T13:32:54.705Z,3.65
2018-08-18T13:35:23.539Z,4.50
2018-08-18T13:37:53.219Z,3.87
2018-08-18T13:40:25.982Z,3.52
2018-08-18T13:42:55.763Z,3.08
2018-08-18T13:45:45.075Z,3.40
2018-08-18T13:48:14.639Z,5.72
2018-08-18T13:50:43.433Z,3.40
2018-08-18T13:53:12.546Z,3.33
2018-08-18T13:55:42.168Z,3.22
2018-08-18T13:58:12.790Z,3.65
2018-08-18T14:00:41.651Z,3.83
2018-08-18T14:03:26.035Z,3.37
2018-08-18T14:05:55.651Z,3.22
2018-08-18T14:08:24.507Z,3.92
2018-08-18T14:10:53.363Z,3.37
2018-08-18T14:13:23.198Z,3.70
2018-08-18T14:15:56.157Z,3.67
2018-08-18T14:18:25.204Z,3.75
2018-08-18T14:21:04.785Z,4.60
2018-08-18T14:23:33.600Z,3.72
2018-08-18T14:26:02.422Z,4.05
2018-08-18T14:28:31.281Z,3.65
2018-08-18T14:31:01.062Z,3.37
2018-08-18T14:33:30.354Z,3.40
2018-08-18T14:36:05.357Z,3.58
2018-08-18T14:38:35.342Z,3.20
2018-08-18T14:41:04.189Z,3.20
2018-08-18T14:43:37.009Z,3.58
2018-08-18T14:46:09.298Z,3.60
2018-08-18T14:48:39.305Z,3.90
2018-08-18T14:51:08.560Z,4.15
2018-08-18T14:53:41.440Z,3.75
2018-08-18T14:56:10.336Z,4.28
2018-08-18T14:58:42.715Z,4.08
2018-08-18T15:01:12.727Z,4.58
2018-08-18T15:03:42.213Z,3.20
2018-08-18T15:06:12.464Z,3.30
2018-08-18T15:08:41.582Z,4.20
2018-08-18T15:11:10.347Z,3.60
2018-08-18T15:13:39.153Z,4.05
2018-08-18T15:16:07.981Z,4.03
2018-08-18T15:18:37.747Z,4.90
2018-08-18T15:21:07.125Z,4.08
2018-08-18T15:23:35.866Z,4.62
2018-08-18T15:26:05.729Z,3.30
2018-08-18T15:28:34.827Z,3.87
2018-08-18T15:31:03.631Z,3.90
2018-08-18T15:33:32.423Z,4.62
2018-08-18T15:36:01.232Z,4.20
2018-08-18T15:38:43.786Z,4.30
2018-08-18T15:41:12.939Z,3.90
2018-08-18T15:43:41.754Z,4.10
2018-08-18T15:46:10.571Z,4.87
2018-08-18T15:48:41.643Z,3.67
2018-08-18T15:51:10.601Z,4.40
2018-08-18T15:53:49.891Z,4.30
2018-08-18T15:56:19.754Z,4.15
2018-08-18T15:58:49.451Z,4.53
2018-08-18T16:01:19.098Z,4.47
2018-08-18T16:03:47.899Z,4.22
2018-08-18T16:06:16.701Z,5.45
2018-08-18T16:08:46.055Z,4.62
2018-08-18T16:11:15.257Z,4.20
2018-08-18T16:13:44.176Z,4.22
2018-08-18T16:16:12.893Z,4.12
2018-08-18T16:18:41.726Z,4.25
2018-08-18T16:21:14.745Z,4.12
2018-08-18T16:23:44.041Z,4.47
2018-08-18T16:26:13.521Z,4.60
2018-08-18T16:28:43.423Z,4.45
2018-08-18T16:31:13.551Z,4.15
2018-08-18T16:33:42.743Z,4.25
2018-08-18T16:36:11.614Z,4.62
2018-08-18T16:38:40.731Z,4.08
2018-08-18T16:41:09.552Z,4.60
2018-08-18T16:43:38.549Z,3.92
2018-08-18T16:46:31.250Z,5.10
2018-08-18T16:49:01.079Z,4.30
2018-08-18T16:51:29.888Z,4.50
2018-08-18T16:54:19.062Z,5.22
2018-08-18T16:56:47.913Z,4.78
2018-08-18T16:59:16.740Z,4.58
2018-08-18T17:01:45.576Z,5.35
2018-08-18T17:04:18.769Z,5.60
2018-08-18T17:06:47.912Z,4.30
2018-08-18T17:09:40.175Z,3.58
2018-08-18T17:12:17.635Z,4.67
2018-08-18T17:14:46.537Z,3.98
2018-08-18T17:17:15.414Z,3.90
2018-08-18T17:19:45.063Z,4.55
2018-08-18T17:22:15.406Z,4.33
2018-08-18T17:24:44.193Z,4.03
2018-08-18T17:27:13.644Z,4.70
2018-08-18T17:29:44.155Z,4.03
2018-08-18T17:32:12.946Z,4.17
2018-08-18T17:34:41.746Z,4.67
2018-08-18T17:37:10.546Z,4.15
2018-08-18T17:39:39.654Z,4.65
2018-08-18T17:42:08.480Z,4.50
2018-08-18T17:44:37.322Z,4.92
2018-08-18T17:47:11.078Z,4.87
2018-08-18T17:49:46.517Z,4.62
2018-08-18T17:52:15.359Z,3.98
2018-08-18T17:54:59.341Z,4.85
2018-08-18T17:57:28.171Z,3.60
2018-08-18T17:59:56.987Z,4.17
2018-08-18T18:02:25.802Z,4.10
2018-08-18T18:05:00.325Z,4.33
2018-08-18T18:07:29.126Z,3.75
2018-08-18T18:09:57.922Z,4.00
2018-08-18T18:12:27.596Z,4.47
2018-08-18T18:14:56.703Z,4.03
2018-08-18T18:17:25.955Z,3.50
2018-08-18T18:19:57.432Z,3.87
2018-08-18T18:22:36.830Z,4.70
2018-08-18T18:25:07.259Z,4.00
2018-08-18T18:27:36.088Z,4.12
2018-08-18T18:30:05.000Z,3.92
2018-08-18T18:32:33.825Z,4.42
2018-08-18T18:35:02.682Z,4.20
2018-08-18T18:37:31.431Z,4.00
2018-08-18T18:40:03.405Z,4.00
2018-08-18T18:42:32.225Z,7.65
2018-08-18T18:45:01.030Z,5.15
2018-08-18T18:47:30.374Z,3.90
2018-08-18T18:49:59.178Z,4.60
2018-08-18T18:52:28.030Z,4.70
2018-08-18T18:54:58.240Z,4.63
2018-08-18T18:57:27.129Z,5.28
2018-08-18T18:59:56.978Z,4.40
2018-08-18T19:02:38.149Z,4.60
2018-08-18T19:05:21.866Z,4.50
2018-08-18T19:08:00.785Z,4.20
2018-08-18T19:10:29.770Z,4.75
2018-08-18T19:12:58.588Z,4.53
2018-08-18T19:15:28.250Z,4.47
2018-08-18T19:17:57.062Z,5.53
2018-08-18T19:20:28.140Z,4.37
2018-08-18T19:23:05.539Z,7.07
2018-08-18T19:25:35.351Z,5.00
2018-08-18T19:28:04.185Z,4.67
2018-08-18T19:30:33.849Z,4.93
2018-08-18T19:33:02.944Z,5.03
2018-08-18T19:35:36.829Z,5.10
2018-08-18T19:38:06.334Z,6.23
2018-08-18T19:40:36.685Z,4.87
2018-08-18T19:43:11.878Z,7.53
2018-08-18T19:45:40.714Z,5.67
2018-08-18T19:48:09.870Z,5.67
2018-08-18T19:50:43.696Z,6.03
2018-08-18T19:53:12.473Z,5.57
2018-08-18T19:55:41.292Z,6.40
2018-08-18T19:58:10.161Z,6.30
2018-08-18T20:00:38.991Z,9.50
2018-08-18T20:03:09.180Z,6.90
2018-08-18T20:05:38.289Z,7.73
2018-08-18T20:08:07.141Z,7.70
2018-08-18T20:11:11.073Z,9.27
2018-08-18T20:13:39.920Z,8.00
2018-08-18T20:16:08.758Z,8.83
2018-08-18T20:18:37.646Z,8.23
2018-08-18T20:21:06.462Z,9.40
2018-08-18T20:23:35.304Z,14.57
2018-08-18T20:26:04.574Z,10.87
2018-08-18T20:28:33.395Z,11.00
2018-08-18T20:31:02.961Z,8.53
2018-08-18T20:33:31.766Z,8.90
2018-08-18T20:36:00.576Z,8.77
2018-08-18T20:38:33.529Z,9.93
2018-08-18T20:41:02.819Z,10.17
2018-08-18T20:43:31.615Z,10.37
2018-08-18T20:46:01.715Z,8.43
2018-08-18T20:48:31.087Z,9.40
2018-08-18T20:50:59.813Z,10.43
2018-08-18T20:53:28.674Z,9.73
2018-08-18T20:55:59.814Z,9.93
2018-08-18T20:58:29.363Z,10.27
2018-08-18T21:00:58.189Z,11.00
2018-08-18T21:03:58.774Z,10.20
2018-08-18T21:06:27.599Z,10.47
2018-08-18T21:08:56.463Z,11.63
2018-08-18T21:11:25.311Z,11.93
2018-08-18T21:13:54.787Z,13.17
2018-08-18T21:16:23.839Z,12.47
2018-08-18T21:18:52.842Z,12.47
2018-08-18T21:21:32.701Z,12.90
2018-08-18T21:24:01.876Z,13.13
2018-08-18T21:26:31.518Z,13.50
2018-08-18T21:29:00.347Z,12.70
2018-08-18T21:31:32.935Z,14.60
2018-08-18T21:34:02.829Z,14.03
2018-08-18T21:36:32.261Z,15.83
2018-08-18T21:39:05.549Z,14.80
2018-08-18T21:41:37.942Z,16.33
2018-08-18T21:44:08.976Z,15.20
2018-08-18T21:46:38.175Z,13.90
2018-08-18T21:49:07.122Z,14.13
2018-08-18T21:51:35.960Z,14.43
2018-08-18T21:54:04.798Z,15.03
2018-08-18T21:56:38.131Z,13.70
2018-08-18T21:59:09.111Z,15.17
2018-08-18T22:01:37.933Z,17.60
2018-08-18T22:04:07.487Z,16.53
2018-08-18T22:06:36.331Z,15.40
2018-08-18T22:09:21.780Z,14.43
2018-08-18T22:11:50.667Z,14.70
2018-08-18T22:14:19.733Z,14.80
2018-08-18T22:16:54.270Z,14.77
2018-08-18T22:19:23.218Z,13.90
2018-08-18T22:21:52.113Z,13.70
2018-08-18T22:24:20.993Z,14.33
2018-08-18T22:26:50.289Z,14.70
2018-08-18T22:29:23.229Z,13.87
2018-08-18T22:31:52.539Z,19.37
2018-08-18T22:34:21.391Z,17.90
2018-08-18T22:36:50.504Z,16.63
2018-08-18T22:39:19.411Z,20.73
2018-08-18T22:41:48.813Z,25.17
2018-08-18T22:44:17.620Z,22.33
2018-08-18T22:46:46.443Z,18.93
2018-08-18T22:49:15.256Z,16.37
2018-08-18T22:51:45.081Z,14.97
2018-08-18T22:54:13.926Z,15.47
2018-08-18T22:56:47.366Z,14.33
2018-08-18T22:59:16.194Z,16.10
2018-08-18T23:01:45.014Z,15.63
2018-08-18T23:04:29.691Z,15.07
2018-08-18T23:06:59.725Z,14.57
2018-08-18T23:09:30.956Z,13.43
2018-08-18T23:12:01.629Z,13.97
2018-08-18T23:14:34.427Z,12.77
2018-08-18T23:17:03.586Z,11.17
2018-08-18T23:19:33.165Z,11.03
2018-08-18T23:22:02.351Z,10.77
2018-08-18T23:24:36.626Z,10.27
2018-08-18T23:27:05.713Z,10.40
2018-08-18T23:29:34.527Z,10.87
2018-08-18T23:32:14.736Z,10.47
2018-08-18T23:34:43.526Z,9.70
2018-08-18T23:37:16.560Z,10.20
2018-08-18T23:39:45.394Z,9.90
2018-08-18T23:42:19.502Z,9.07
2018-08-18T23:44:49.118Z,9.83
2018-08-18T23:47:18.360Z,10.37
2018-08-18T23:49:47.813Z,7.90
2018-08-18T23:52:16.830Z,8.63
2018-08-18T23:54:45.652Z,9.17
2018-08-18T23:57:16.968Z,10.27
2018-08-18T23:59:46.154Z,9.90
